Time;durP1;ratioP1;P1;durP2;ratioP2;P2;SDS_P1;SDS_P2;PMS_P1;PMS_P2;Temp;Humidity;BMP_temperature;BMP_pressure;BME280_temperature;BME280_humidity;BME280_pressure;Samples;Min_cycle;Max_cycle;Signal;HPM_P1;HPM_P2
2023/06/01 05:02:37;;;;;;;;;6.67;5.33;;;;;20.67;52.66;58645.31;6377644;22;28571;-85
2023/06/01 05:05:04;;;;;;;;;5.33;5.33;;;;;20.55;52.87;58793.88;6385561;22;28447;-85
2023/06/01 05:07:29;;;;;;;;;10.67;7.33;;;;;20.26;52.99;58218.94;6356321;22;28536;-85
2023/06/01 05:09:55;;;;;;;;;5.33;5.33;;;;;20.06;53.18;58054.13;6385497;22;28498;-85
2023/06/01 05:12:20;;;;;;;;;9.33;5.00;;;;;20.22;52.76;58455.91;6356986;22;28750;-85
2023/06/01 05:14:45;;;;;;;;;5.00;5.00;;;;;20.47;52.56;58612.06;6357984;22;28459;-85
2023/06/01 05:17:11;;;;;;;;;6.00;6.00;;;;;20.69;53.08;57759.78;6355749;22;28452;-84
2023/06/01 05:19:36;;;;;;;;;7.00;6.00;;;;;20.30;53.07;57781.06;6385019;22;29315;-85
2023/06/01 05:22:01;;;;;;;;;7.67;6.00;;;;;20.03;53.00;57407.00;6387718;22;28805;-88
2023/06/01 05:24:27;;;;;;;;;6.33;5.00;;;;;20.71;52.89;57333.03;6387599;22;28383;-84
2023/06/01 05:26:53;;;;;;;;;6.00;5.00;;;;;20.71;53.44;56588.69;6385717;22;28646;-84
2023/06/01 05:29:18;;;;;;;;;4.33;4.33;;;;;20.50;53.10;56761.34;6387024;22;29035;-85
2023/06/01 05:31:46;;;;;;;;;5.33;5.33;;;;;20.55;53.11;56734.13;6386083;22;31448;-84
2023/06/01 05:34:11;;;;;;;;;7.00;5.00;;;;;20.63;53.21;56667.06;6385410;22;28431;-85
2023/06/01 05:36:36;;;;;;;;;11.00;11.00;;;;;20.69;53.61;55930.44;6386415;22;28605;-85
2023/06/01 05:39:02;;;;;;;;;11.33;10.33;;;;;20.69;53.13;55855.47;6356059;22;29816;-85
2023/06/01 05:41:27;;;;;;;;;6.00;6.00;;;;;20.49;53.28;55884.69;6385710;22;28445;-89
2023/06/01 05:43:53;;;;;;;;;5.33;4.67;;;;;20.49;53.28;55579.00;6359256;22;28427;-84
2023/06/01 05:46:18;;;;;;;;;6.67;6.00;;;;;20.77;53.47;55766.81;6357942;22;28514;-83
2023/06/01 05:48:44;;;;;;;;;6.00;6.00;;;;;20.52;53.56;55498.88;6385340;22;28509;-83
2023/06/01 05:51:09;;;;;;;;;6.00;6.00;;;;;20.62;53.13;55495.66;6386234;22;28443;-84
2023/06/01 05:53:35;;;;;;;;;8.00;8.00;;;;;20.56;53.55;55344.78;6387094;22;28689;-83
2023/06/01 05:56:00;;;;;;;;;6.67;6.67;;;;;20.82;53.27;55077.88;6387449;22;28835;-84
2023/06/01 05:58:25;;;;;;;;;7.00;5.33;;;;;20.80;53.15;55332.59;6386926;22;29238;-84
2023/06/01 06:00:51;;;;;;;;;5.00;5.00;;;;;20.55;53.08;55494.22;6386940;22;28454;-85
2023/06/01 06:03:16;;;;;;;;;7.33;7.33;;;;;20.86;53.16;55076.34;6386620;22;28408;-82
2023/06/01 06:05:41;;;;;;;;;4.67;4.67;;;;;20.87;53.34;54471.97;6385838;22;28488;-80
2023/06/01 06:08:07;;;;;;;;;7.33;7.00;;;;;20.90;53.21;54479.69;6386156;22;30952;-81
2023/06/01 06:10:32;;;;;;;;;8.50;7.50;;;;;20.71;53.68;53910.59;6387131;22;28004;-83
2023/06/01 06:12:57;;;;;;;;;10.00;8.33;;;;;20.76;53.87;53117.06;6386866;22;28410;-82
2023/06/01 06:15:23;;;;;;;;;8.67;8.67;;;;;20.96;53.48;53044.53;6387726;22;28463;-81
2023/06/01 06:17:48;;;;;;;;;8.33;6.67;;;;;20.96;53.87;52327.00;6386168;22;34372;-81
2023/06/01 06:20:15;;;;;;;;;10.00;7.67;;;;;20.75;53.88;52527.72;6385498;22;28805;-81
2023/06/01 06:22:41;;;;;;;;;7.67;7.00;;;;;20.99;53.45;52524.72;6356580;22;28447;-81
2023/06/01 06:25:08;;;;;;;;;9.00;8.33;;;;;20.98;53.47;52494.34;6385967;22;28449;-80
2023/06/01 06:27:33;;;;;;;;;6.67;6.67;;;;;21.02;53.64;52426.16;6386012;22;28530;-82
2023/06/01 06:29:59;;;;;;;;;10.00;7.00;;;;;20.78;53.49;52503.72;6355730;22;29351;-81
2023/06/01 06:32:24;;;;;;;;;10.33;7.00;;;;;20.98;53.46;52604.59;6385161;22;28473;-83
2023/06/01 06:34:50;;;;;;;;;9.00;7.00;;;;;21.07;53.30;52489.66;6357534;22;28511;-82
2023/06/01 06:37:15;;;;;;;;;8.33;7.67;;;;;21.01;53.27;52373.94;6386447;22;28530;-82
2023/06/01 06:39:41;;;;;;;;;7.00;7.00;;;;;21.06;53.37;51709.16;6386932;22;28557;-82
2023/06/01 06:42:06;;;;;;;;;5.33;5.33;;;;;21.15;53.60;51811.00;6386547;22;28439;-81
2023/06/01 06:44:32;;;;;;;;;8.00;6.67;;;;;21.15;53.60;51811.00;6358189;22;28479;-81
2023/06/01 06:46:58;;;;;;;;;6.00;4.67;;;;;21.05;53.43;51258.97;6386416;22;28394;-81
2023/06/01 06:49:24;;;;;;;;;7.33;5.67;;;;;20.96;53.84;51084.97;6387531;22;28369;-81
2023/06/01 06:51:49;;;;;;;;;7.67;6.33;;;;;21.26;53.87;50639.63;6358874;22;28440;-80
2023/06/01 06:54:15;;;;;;;;;7.00;7.00;;;;;21.22;53.70;50532.09;6388552;22;28457;-81
2023/06/01 06:56:40;;;;;;;;;9.67;8.00;;;;;21.29;53.79;50476.72;6387423;22;29026;-81
2023/06/01 06:59:06;;;;;;;;;10.67;8.00;;;;;20.98;53.39;50580.50;6358887;22;29576;-81
2023/06/01 07:01:35;;;;;;;;;21.67;19.67;;;;;21.36;54.32;47444.50;6386343;22;28374;-81
2023/06/01 07:04:01;;;;;;;;;30.33;24.00;;;;;21.10;54.62;45760.13;6359129;22;28450;-80
2023/06/01 07:06:26;;;;;;;;;14.33;14.00;;;;;21.30;54.83;45666.16;6387526;22;28876;-80
2023/06/01 07:08:52;;;;;;;;;13.00;12.00;;;;;21.19;54.50;45508.00;6357244;22;28638;-81
2023/06/01 07:11:17;;;;;;;;;12.67;9.67;;;;;21.10;53.87;46912.50;6386774;22;28364;-81
2023/06/01 07:13:42;;;;;;;;;7.00;7.00;;;;;21.10;53.61;47655.56;6387116;22;28314;-81
2023/06/01 07:16:08;;;;;;;;;11.67;10.33;;;;;21.42;53.61;47655.56;6387442;22;28482;-81
2023/06/01 07:18:33;;;;;;;;;5.00;5.00;;;;;21.18;53.18;48668.13;6387260;22;28401;-81
2023/06/01 07:20:58;;;;;;;;;9.00;7.67;;;;;21.29;53.62;48720.75;6387499;22;28330;-81
2023/06/01 07:23:24;;;;;;;;;7.00;5.00;;;;;21.47;53.43;49000.75;6388022;22;27880;-80
2023/06/01 07:25:49;;;;;;;;;5.67;4.00;;;;;21.42;53.47;48717.63;6387481;22;28455;-81
2023/06/01 07:28:15;;;;;;;;;8.33;5.67;;;;;21.64;53.14;48599.44;6387054;22;28309;-81
2023/06/01 07:30:41;;;;;;;;;6.33;6.33;;;;;21.57;53.40;48706.34;6387730;22;28419;-81
2023/06/01 07:33:07;;;;;;;;;8.00;6.33;;;;;21.53;52.93;48561.03;6387705;22;28384;-80
2023/06/01 07:35:33;;;;;;;;;6.33;5.33;;;;;21.34;53.25;48531.91;6387102;22;28530;-81
2023/06/01 07:37:58;;;;;;;;;5.67;5.00;;;;;21.73;53.20;48863.75;6387567;22;28479;-80
2023/06/01 07:40:24;;;;;;;;;8.67;6.33;;;;;21.73;53.20;48863.75;6387240;22;28641;-80
2023/06/01 07:42:49;;;;;;;;;5.67;4.67;;;;;21.77;52.97;48840.38;6387371;22;28376;-81
2023/06/01 07:45:15;;;;;;;;;4.00;4.00;;;;;21.75;53.01;48953.84;6387178;22;28909;-81
2023/06/01 07:47:40;;;;;;;;;3.67;3.67;;;;;21.75;52.62;49193.56;6387293;22;28388;-81
2023/06/01 07:50:07;;;;;;;;;7.33;4.67;;;;;21.68;52.92;49036.63;6387544;22;28379;-82
2023/06/01 07:52:32;;;;;;;;;6.67;3.67;;;;;22.65;52.69;48891.16;6387548;22;28390;-81
2023/06/01 07:54:58;;;;;;;;;8.33;7.00;;;;;21.89;52.98;48585.44;6358295;22;29539;-81
2023/06/01 07:57:23;;;;;;;;;5.33;5.33;;;;;21.97;52.92;48546.31;6387270;22;28400;-81
2023/06/01 07:59:49;;;;;;;;;5.00;5.00;;;;;21.98;52.46;48734.69;6358923;22;28799;-87
2023/06/01 08:02:15;;;;;;;;;6.00;4.33;;;;;22.05;52.67;48647.28;6358366;22;27929;-84
2023/06/01 08:04:40;;;;;;;;;4.33;4.33;;;;;21.97;52.79;48605.66;6357597;22;28635;-86
2023/06/01 08:07:07;;;;;;;;;5.00;4.00;;;;;21.97;52.79;48605.66;6387304;22;28402;-89
2023/06/01 08:09:32;;;;;;;;;3.75;3.75;;;;;21.80;52.94;48543.41;6359911;22;28558;-86
2023/06/01 08:11:58;;;;;;;;;4.33;3.33;;;;;22.16;52.64;48529.88;6387215;22;28712;-86
2023/06/01 08:14:23;;;;;;;;;5.33;5.33;;;;;22.24;52.47;48357.56;6385724;22;28413;-84
2023/06/01 08:16:51;;;;;;;;;6.00;5.00;;;;;22.23;52.34;48415.66;6386713;22;28392;-86
2023/06/01 08:19:16;;;;;;;;;8.33;5.33;;;;;22.16;52.57;48348.06;6359039;22;28572;-87
2023/06/01 08:21:42;;;;;;;;;3.33;3.33;;;;;22.04;52.45;48279.41;6358800;22;28573;-87
2023/06/01 08:24:08;;;;;;;;;4.67;3.33;;;;;22.04;52.45;48279.41;6387279;22;28326;-85
2023/06/01 08:26:34;;;;;;;;;3.67;3.67;;;;;22.45;52.19;48178.78;6358318;22;28487;-85
2023/06/01 08:29:00;;;;;;;;;5.25;4.25;;;;;22.48;52.44;48069.16;6387275;22;28534;-85
2023/06/01 08:31:25;;;;;;;;;5.00;5.00;;;;;22.48;52.44;48069.16;6387660;22;28476;-87
2023/06/01 08:33:52;;;;;;;;;7.00;6.00;;;;;22.53;52.15;48153.78;6385645;22;29131;-85
2023/06/01 08:36:19;;;;;;;;;10.00;10.00;;;;;22.58;52.51;47256.78;6385948;22;28503;-87
2023/06/01 08:38:45;;;;;;;;;8.00;7.00;;;;;22.58;52.51;47256.78;6383096;22;28449;-87
2023/06/01 08:41:17;;;;;;;;;11.33;10.33;;;;;22.61;52.43;47663.66;6386337;22;28585;-87
2023/06/01 08:43:48;;;;;;;;;9.33;8.33;;;;;22.56;52.48;47196.16;6385510;22;29147;-87
2023/06/01 08:46:15;;;;;;;;;5.33;5.33;;;;;22.44;52.27;48052.84;6384703;22;28419;-85
2023/06/01 08:48:43;;;;;;;;;6.33;5.33;;;;;22.35;52.27;48052.84;6383785;22;28387;-83
2023/06/01 08:51:09;;;;;;;;;5.67;4.67;;;;;22.69;52.04;47603.75;6383950;22;28865;-85
2023/06/01 08:53:35;;;;;;;;;3.67;3.67;;;;;-97.90;52.06;50721.72;6385569;22;29074;-87
2023/06/01 08:56:03;;;;;;;;;9.33;6.00;;;;;22.94;52.17;47267.44;6383535;22;27844;-85
2023/06/01 08:58:30;;;;;;;;;7.25;5.25;;;;;22.94;52.17;47267.44;6385540;22;28470;-85
2023/06/01 09:00:57;;;;;;;;;8.00;6.33;;;;;22.90;52.26;47041.53;6386114;22;28844;-86
2023/06/01 09:03:24;;;;;;;;;7.00;7.00;;;;;22.93;52.15;46898.75;6350631;22;29811;-87
2023/06/01 09:05:49;;;;;;;;;7.50;4.25;;;;;22.95;52.15;46672.44;6355267;22;28434;-86
2023/06/01 09:08:15;;;;;;;;;5.00;5.00;;;;;23.05;51.80;46425.44;6352427;22;28526;-86
2023/06/01 09:10:41;;;;;;;;;7.33;4.33;;;;;23.54;51.51;45243.81;6355234;22;28425;-89
2023/06/01 09:13:07;;;;;;;;;6.00;4.67;;;;;25.00;50.75;41225.03;6355392;22;28502;-87
2023/06/01 09:15:32;;;;;;;;;5.67;5.33;;;;;25.00;50.75;41225.03;6354475;22;28380;-86
2023/06/01 09:18:07;;;;;;;;;6.33;6.00;;;;;25.76;50.04;28839.69;6353389;22;28448;-88
2023/06/01 09:20:32;;;;;;;;;5.50;5.50;;;;;27.90;49.23;30775.41;6354446;22;28685;-88
2023/06/01 09:22:58;;;;;;;;;5.00;5.00;;;;;148.63;48.55;36233.81;6354101;22;28821;-86
2023/06/01 09:25:28;;;;;;;;;8.67;6.33;;;;;29.60;46.43;38122.53;6349469;22;45348;-86
2023/06/01 09:27:55;;;;;;;;;6.33;6.33;;;;;30.36;45.55;39580.75;6336105;22;45408;-88
2023/06/01 09:30:23;;;;;;;;;8.00;4.67;;;;;31.03;44.87;41373.09;6335546;22;45734;-89
2023/06/01 09:32:53;;;;;;;;;5.00;5.00;;;;;31.65;44.24;43628.00;6332341;22;47466;-87
2023/06/01 09:35:38;;;;;;;;;6.00;4.00;;;;;32.26;43.19;46013.31;6335446;22;45384;-85
2023/06/01 09:38:05;;;;;;;;;3.67;3.67;;;;;32.72;42.06;49377.97;6335957;22;45518;-90
2023/06/01 09:40:32;;;;;;;;;5.67;4.33;;;;;33.01;41.78;53415.22;6332144;22;45502;-88
2023/06/01 09:42:58;;;;;;;;;7.00;5.33;;;;;33.72;41.06;55230.81;6332763;22;45803;-88
2023/06/01 09:45:23;;;;;;;;;6.33;5.00;;;;;-145.03;100.00;62373.16;6343064;22;45957;-89
2023/06/01 09:47:50;;;;;;;;;9.00;7.33;;;;;-145.03;100.00;62373.16;6353158;22;28413;-90
2023/06/01 09:50:33;;;;;;;;;7.50;7.00;;;;;-145.03;100.00;62373.16;6354221;22;28674;-94
2023/06/01 09:52:59;;;;;;;;;7.33;6.00;;;;;-145.03;100.00;62373.16;6356375;22;28524;-91
2023/06/01 09:55:27;;;;;;;;;4.25;4.25;;;;;-145.03;100.00;62373.16;6354893;22;28464;-91
2023/06/01 09:58:13;;;;;;;;;5.00;5.00;;;;;-145.03;100.00;62373.16;6355961;22;28584;-90
2023/06/01 10:00:38;;;;;;;;;7.00;5.33;;;;;-145.03;100.00;62373.16;6352573;22;28406;-87
2023/06/01 10:03:07;;;;;;;;;5.33;5.33;;;;;-145.03;100.00;62373.16;6350426;22;30150;-87
2023/06/01 10:05:33;;;;;;;;;6.75;4.50;;;;;-145.03;100.00;62373.16;6353823;22;28411;-88
2023/06/01 10:08:01;;;;;;;;;4.67;4.67;;;;;-145.03;100.00;62373.16;6351491;22;28314;-87
2023/06/01 10:10:26;;;;;;;;;4.25;4.25;;;;;-145.03;100.00;62373.16;6354295;22;28353;-87
2023/06/01 10:12:52;;;;;;;;;6.67;6.67;;;;;-145.03;100.00;62373.16;6352781;22;28746;-87
2023/06/01 10:15:18;;;;;;;;;6.33;6.00;;;;;-145.03;100.00;62373.16;6351409;22;28634;-87
2023/06/01 10:17:43;;;;;;;;;6.25;5.25;;;;;-145.03;100.00;62373.16;6352126;22;28491;-86
2023/06/01 10:20:11;;;;;;;;;4.33;4.33;;;;;-145.03;100.00;62373.16;6361709;22;27866;-87
2023/06/01 10:22:41;;;;;;;;;4.25;3.50;;;;;-145.03;100.00;62373.16;6361333;22;29297;-86
2023/06/01 10:25:13;;;;;;;;;5.00;5.00;;;;;-145.03;100.00;62373.16;6354273;22;28470;-88
2023/06/01 10:27:42;;;;;;;;;6.25;5.00;;;;;-145.03;100.00;62373.16;6353289;22;28392;-88
2023/06/01 10:30:09;;;;;;;;;5.00;5.00;;;;;-145.03;100.00;62373.16;6355329;22;28805;-88
2023/06/01 10:32:37;;;;;;;;;5.75;4.75;;;;;-145.03;100.00;62373.16;6352951;22;29881;-89
2023/06/01 10:35:07;;;;;;;;;6.25;4.25;;;;;-145.03;100.00;62373.16;6354236;22;28419;-88
2023/06/01 10:37:33;;;;;;;;;6.00;6.00;;;;;-145.03;100.00;62373.16;6354134;22;28502;-87
2023/06/01 10:40:23;;;;;;;;;3.50;3.50;;;;;-145.03;100.00;62373.16;6354835;22;28459;-87
2023/06/01 10:42:49;;;;;;;;;3.75;3.75;;;;;-145.03;100.00;62373.16;6354579;22;28434;-87
2023/06/01 10:45:33;;;;;;;;;2.67;2.67;;;;;-145.03;100.00;62373.16;6355622;22;28405;-87
2023/06/01 10:47:58;;;;;;;;;4.50;4.50;;;;;-145.03;100.00;62373.16;6353695;22;28757;-87
2023/06/01 10:50:24;;;;;;;;;4.33;2.67;;;;;-145.03;100.00;62373.16;6355575;22;28871;-87
2023/06/01 10:52:50;;;;;;;;;3.33;3.33;;;;;-145.03;100.00;62373.16;6354830;22;28383;-86
2023/06/01 10:55:16;;;;;;;;;3.25;3.25;;;;;-145.03;100.00;62373.16;6355221;22;28375;-86
2023/06/01 10:57:46;;;;;;;;;5.33;4.00;;;;;-145.03;100.00;62373.16;6355534;22;28310;-86
2023/06/01 11:00:18;;;;;;;;;2.50;2.50;;;;;-145.03;100.00;62373.16;6353267;22;28765;-88
2023/06/01 11:06:31;;;;;;;;;3.75;3.75;;;;;-145.03;100.00;62373.16;6355339;22;28356;-88
2023/06/01 11:09:10;;;;;;;;;5.75;4.75;;;;;-145.03;100.00;62373.16;6353416;22;28392;-88
2023/06/01 11:11:57;;;;;;;;;11.33;11.33;;;;;-145.03;100.00;62373.16;6353061;22;28615;-88
2023/06/01 11:14:24;;;;;;;;;4.67;4.67;;;;;-145.03;100.00;62373.16;6353061;22;30070;-87
2023/06/01 11:17:04;;;;;;;;;4.25;2.50;;;;;-145.03;100.00;62373.16;6353636;22;28594;-88
2023/06/01 11:19:49;;;;;;;;;5.67;5.67;;;;;-145.03;100.00;62373.16;6354368;22;28474;-89
2023/06/01 11:22:51;;;;;;;;;3.67;3.67;;;;;-145.03;100.00;62373.16;6353271;22;28548;-87
2023/06/01 11:25:24;;;;;;;;;5.33;3.33;;;;;-145.03;100.00;62373.16;6353979;22;28664;-87
2023/06/01 11:27:54;;;;;;;;;4.25;4.25;;;;;-145.03;100.00;62373.16;6352518;22;28489;-88
2023/06/01 11:30:30;;;;;;;;;3.75;3.75;;;;;-145.03;100.00;62373.16;6353282;22;28374;-86
2023/06/01 11:33:00;;;;;;;;;5.33;5.33;;;;;-145.03;100.00;62373.16;6353532;22;28531;-86
2023/06/01 11:35:28;;;;;;;;;5.33;5.33;;;;;-145.03;100.00;62373.16;6352095;22;29798;-87
2023/06/01 11:37:55;;;;;;;;;4.25;3.50;;;;;-145.03;100.00;62373.16;6356716;22;29227;-93
2023/06/01 11:40:23;;;;;;;;;5.25;5.25;;;;;-145.03;100.00;62373.16;6353352;22;28466;-87
2023/06/01 11:42:51;;;;;;;;;5.00;5.00;;;;;-145.03;100.00;62373.16;6354467;22;28458;-87
2023/06/01 11:45:17;;;;;;;;;5.00;5.00;;;;;-145.03;100.00;62373.16;6353968;22;29348;-87
2023/06/01 11:47:45;;;;;;;;;6.67;6.33;;;;;-145.03;100.00;62373.16;6353579;22;29375;-87
2023/06/01 11:50:24;;;;;;;;;4.25;4.25;;;;;-145.03;100.00;62373.16;6354243;22;28685;-88
2023/06/01 11:52:50;;;;;;;;;5.00;3.33;;;;;-145.03;100.00;62373.16;6356260;22;28894;-92
2023/06/01 11:55:21;;;;;;;;;3.67;3.67;;;;;-145.03;100.00;62373.16;6356303;22;28436;-91
2023/06/01 11:57:55;;;;;;;;;3.75;3.75;;;;;-145.03;100.00;62373.44;6353372;22;28682;-91
2023/06/01 12:00:23;;;;;;;;;4.25;3.50;;;;;-97.90;100.00;40048.06;6354054;22;28519;-91
2023/06/01 12:03:04;;;;;;;;;4.25;4.25;;;;;-144.33;100.00;62424.97;6353924;22;28405;-91
2023/06/01 12:05:39;;;;;;;;;4.67;4.67;;;;;33.14;31.67;71090.66;6335603;22;45289;-91
2023/06/01 12:08:05;;;;;;;;;4.33;3.33;;;;;33.14;31.76;71084.59;6335272;22;45332;-91
2023/06/01 12:10:33;;;;;;;;;4.00;3.00;;;;;33.23;32.16;70952.88;6334446;22;45634;-90
2023/06/01 12:13:04;;;;;;;;;3.67;3.67;;;;;33.88;32.40;71138.88;6335411;22;45578;-91
2023/06/01 12:15:29;;;;;;;;;2.33;2.00;;;;;32.58;32.53;70865.16;6336849;22;46644;-90
2023/06/01 12:17:58;;;;;;;;;5.00;5.00;;;;;32.85;32.66;71055.50;6336338;22;45281;-90
2023/06/01 12:20:57;;;;;;;;;3.67;3.67;;;;;33.21;32.86;70997.09;6333099;22;45510;-95
2023/06/01 12:23:22;;;;;;;;;4.33;4.33;;;;;32.17;33.00;70835.97;6338549;22;45345;-92
2023/06/01 12:25:59;;;;;;;;;4.33;4.33;;;;;32.61;33.26;70920.22;6337599;22;47335;-93
2023/06/01 12:28:29;;;;;;;;;3.67;3.67;;;;;32.61;33.93;70898.31;6336505;22;45458;-91
2023/06/01 12:31:14;;;;;;;;;3.00;3.00;;;;;32.32;34.41;71028.75;6341489;22;45485;-93
2023/06/01 12:33:40;;;;;;;;;4.00;4.00;;;;;32.39;33.89;70922.78;6335295;22;45348;-93
2023/06/01 12:36:07;;;;;;;;;7.00;6.00;;;;;32.26;34.61;70901.59;6337952;22;46237;-93
2023/06/01 12:38:36;;;;;;;;;4.00;4.00;;;;;32.15;34.56;70896.53;6335749;22;45290;-93
2023/06/01 12:41:17;;;;;;;;;3.00;3.00;;;;;31.82;34.66;70857.81;6343657;22;45339;-95
2023/06/01 12:43:47;;;;;;;;;3.33;3.33;;;;;31.50;34.68;70800.59;6341529;22;44910;-95
2023/06/01 12:49:40;;;;;;;;;6.00;6.00;;;;;31.36;35.41;70764.50;6327011;22;45322;-85
2023/06/01 12:52:05;;;;;;;;;3.33;3.33;;;;;31.61;35.72;70720.25;6386889;22;44954;-95
2023/06/01 12:54:31;;;;;;;;;1.00;1.00;;;;;31.49;35.52;70767.16;6387496;22;44993;-91
2023/06/01 12:56:56;;;;;;;;;4.33;4.00;;;;;31.42;35.76;70698.56;6386526;22;45999;-94
2023/06/01 12:59:22;;;;;;;;;5.33;4.33;;;;;31.26;36.00;70695.63;6387195;22;44846;-92
2023/06/01 13:01:48;;;;;;;;;6.00;5.00;;;;;31.18;36.33;70729.69;6385436;22;44757;-96
2023/06/01 13:04:13;;;;;;;;;4.67;4.00;;;;;31.13;36.09;70670.22;6386896;22;44980;-92
2023/06/01 13:06:39;;;;;;;;;5.00;4.00;;;;;31.08;36.23;70664.19;6385235;22;45301;-91
2023/06/01 13:09:05;;;;;;;;;2.67;2.67;;;;;31.00;37.01;70583.50;6385304;22;44795;-93
2023/06/01 13:11:31;;;;;;;;;6.00;4.33;;;;;30.93;37.04;70654.28;6386455;22;44902;-92
2023/06/01 13:13:57;;;;;;;;;4.33;3.00;;;;;30.82;37.03;70608.81;6387680;22;44813;-93
2023/06/01 13:16:22;;;;;;;;;5.00;5.00;;;;;30.74;37.21;70593.09;6387419;22;46095;-94
2023/06/01 13:18:50;;;;;;;;;5.33;5.33;;;;;30.71;37.64;70554.56;6385284;22;44880;-93
2023/06/01 13:21:18;;;;;;;;;9.33;7.33;;;;;30.43;37.83;70538.41;6385361;22;44877;-96
2023/06/01 13:23:43;;;;;;;;;8.33;6.67;;;;;30.33;37.25;70490.88;6386844;22;44792;-96
2023/06/01 13:26:09;;;;;;;;;15.67;13.67;;;;;30.33;38.02;70496.34;6384500;22;56789;-92
2023/06/01 13:28:35;;;;;;;;;12.33;9.67;;;;;30.22;37.93;70412.13;6387698;22;44852;-95
2023/06/01 13:31:00;;;;;;;;;12.00;10.67;;;;;30.12;38.00;70507.09;6388311;22;44728;-91
2023/06/01 13:33:26;;;;;;;;;8.00;6.33;;;;;30.02;38.43;70402.31;6357694;22;45001;-89
2023/06/01 13:35:51;;;;;;;;;9.67;9.67;;;;;29.79;38.51;70358.88;6384600;22;45843;-87
2023/06/01 13:38:16;;;;;;;;;7.00;7.00;;;;;29.83;38.11;70292.78;6384624;22;44878;-88
2023/06/01 13:40:42;;;;;;;;;10.00;10.00;;;;;29.50;38.56;70259.13;6385175;22;44852;-87
2023/06/01 13:43:07;;;;;;;;;9.00;8.33;;;;;29.59;38.36;70267.22;6385292;22;44921;-87
2023/06/01 13:45:32;;;;;;;;;12.33;10.00;;;;;29.44;38.75;70274.94;6356404;22;52662;-87
2023/06/01 13:47:58;;;;;;;;;10.67;9.00;;;;;29.42;39.04;70242.56;6384752;22;44876;-85
2023/06/01 13:50:24;;;;;;;;;10.33;8.00;;;;;29.42;38.94;70258.31;6384963;22;45050;-85
2023/06/01 13:52:49;;;;;;;;;10.00;10.00;;;;;29.28;38.98;70171.25;6385341;22;44821;-87
2023/06/01 13:55:15;;;;;;;;;5.00;5.00;;;;;29.31;39.38;70174.25;6384452;22;44832;-88
2023/06/01 13:57:41;;;;;;;;;7.00;5.33;;;;;29.25;38.80;70214.56;6384893;22;44894;-91
2023/06/01 14:00:08;;;;;;;;;9.00;6.67;;;;;29.23;38.13;70143.44;6384763;22;44904;-87
2023/06/01 14:02:34;;;;;;;;;5.33;5.33;;;;;29.11;38.79;70120.88;6385269;22;44912;-86
2023/06/01 14:04:59;;;;;;;;;5.33;5.33;;;;;29.16;38.70;70124.75;6385752;22;45388;-87
2023/06/01 14:07:24;;;;;;;;;8.00;8.00;;;;;29.04;38.96;70080.38;6386341;22;44844;-87
2023/06/01 14:09:50;;;;;;;;;5.33;5.33;;;;;28.92;38.89;70142.84;6386164;22;44845;-88
2023/06/01 14:12:15;;;;;;;;;7.00;7.00;;;;;29.01;39.01;70106.75;6386343;22;44787;-87
2023/06/01 14:14:40;;;;;;;;;6.67;6.67;;;;;28.97;39.13;70116.16;6385512;22;46445;-87
2023/06/01 14:17:06;;;;;;;;;8.67;8.33;;;;;28.96;39.36;70038.09;6358678;22;44956;-88
2023/06/01 14:19:31;;;;;;;;;5.33;5.33;;;;;28.83;39.23;69982.28;6386147;22;44893;-86
2023/06/01 14:21:57;;;;;;;;;7.67;7.33;;;;;28.79;39.68;69961.16;6386640;22;45071;-86
2023/06/01 14:24:22;;;;;;;;;4.67;4.67;;;;;28.68;39.61;69984.00;6385222;22;55773;-86
2023/06/01 14:26:48;;;;;;;;;5.00;5.00;;;;;28.65;39.64;69971.63;6385957;22;44843;-87
2023/06/01 14:29:13;;;;;;;;;6.00;6.00;;;;;28.59;39.79;69910.59;6385939;22;44953;-86
2023/06/01 14:31:38;;;;;;;;;8.00;8.00;;;;;28.30;39.67;69928.75;6386274;22;44926;-90
2023/06/01 14:34:04;;;;;;;;;5.33;5.33;;;;;28.45;39.87;69855.72;6386016;22;45846;-86
2023/06/01 14:36:30;;;;;;;;;7.00;5.00;;;;;28.41;39.91;69870.59;6385660;22;44865;-85
2023/06/01 14:38:55;;;;;;;;;4.33;4.33;;;;;28.36;40.28;69831.97;6386350;22;44848;-89
2023/06/01 14:41:20;;;;;;;;;4.33;4.33;;;;;28.32;39.87;69857.09;6386961;22;44997;-85
2023/06/01 14:43:46;;;;;;;;;6.67;5.33;;;;;28.21;40.14;69869.00;6385481;22;45871;-84
2023/06/01 14:46:11;;;;;;;;;7.00;6.00;;;;;28.28;39.89;69819.66;6385154;22;44804;-86
2023/06/01 14:48:36;;;;;;;;;4.00;4.00;;;;;28.18;39.83;69860.00;6385904;22;44817;-87
2023/06/01 14:51:02;;;;;;;;;5.00;4.33;;;;;28.28;39.77;69814.22;6352926;22;45006;-84
2023/06/01 14:53:27;;;;;;;;;7.33;4.33;;;;;28.29;40.21;69837.19;6353865;22;45965;-85
2023/06/01 14:55:52;;;;;;;;;4.00;4.00;;;;;28.01;40.26;69785.28;6352799;22;55538;-82
2023/06/01 14:58:18;;;;;;;;;4.33;4.33;;;;;28.27;40.12;69755.91;6353138;22;44838;-82
2023/06/01 15:00:43;;;;;;;;;5.33;4.33;;;;;28.26;40.03;69785.25;6352575;22;45057;-83
2023/06/01 15:03:08;;;;;;;;;4.00;4.00;;;;;28.06;40.38;69764.66;6353825;22;45238;-87
2023/06/01 15:05:34;;;;;;;;;4.00;4.00;;;;;28.24;40.15;69706.06;6353818;22;44929;-84
2023/06/01 15:08:00;;;;;;;;;3.67;3.67;;;;;28.05;40.40;69716.63;6354237;22;44782;-84
2023/06/01 15:10:25;;;;;;;;;5.00;5.00;;;;;28.18;40.36;69764.81;6353961;22;45342;-83
2023/06/01 15:12:51;;;;;;;;;3.00;3.00;;;;;28.07;40.28;69721.75;6352529;22;46358;-84
2023/06/01 15:15:17;;;;;;;;;8.00;5.00;;;;;28.15;40.63;69695.94;6352788;22;45157;-84
2023/06/01 15:17:42;;;;;;;;;7.00;6.00;;;;;28.14;40.36;69721.94;6353687;22;44991;-86
2023/06/01 15:20:07;;;;;;;;;4.00;4.00;;;;;28.09;40.60;69678.50;6354246;22;44979;-88
2023/06/01 15:22:33;;;;;;;;;4.00;4.00;;;;;27.89;40.79;69677.00;6354572;22;46041;-88
2023/06/01 15:24:58;;;;;;;;;3.67;3.67;;;;;28.08;40.62;69733.81;6354482;22;44853;-90
2023/06/01 15:27:24;;;;;;;;;3.33;1.33;;;;;28.01;40.71;69628.16;6354618;22;44945;-91
2023/06/01 15:29:49;;;;;;;;;4.33;3.33;;;;;27.81;40.88;69634.78;6354748;22;44877;-88
2023/06/01 15:32:18;;;;;;;;;4.67;4.67;;;;;27.82;40.78;69619.69;6354195;22;46302;-93
2023/06/01 15:34:43;;;;;;;;;4.00;4.00;;;;;27.97;40.72;69618.56;6353934;22;44936;-87
2023/06/01 15:37:10;;;;;;;;;5.00;5.00;;;;;27.88;40.97;69564.31;6354099;22;44801;-87
2023/06/01 15:39:35;;;;;;;;;4.00;4.00;;;;;27.75;41.03;69582.03;6354689;22;44986;-87
2023/06/01 15:42:09;;;;;;;;;2.33;2.33;;;;;27.20;40.90;69414.47;6353346;22;45343;-90
2023/06/01 15:44:44;;;;;;;;;4.67;4.00;;;;;27.07;41.15;69489.19;6352818;22;44933;-91
2023/06/01 15:47:10;;;;;;;;;4.00;4.00;;;;;27.49;41.42;69464.13;6353883;22;44850;-88
2023/06/01 15:49:38;;;;;;;;;7.33;5.00;;;;;27.83;41.10;69501.28;6355925;22;45042;-90
2023/06/01 15:52:04;;;;;;;;;4.33;3.67;;;;;27.80;41.41;69467.81;6386744;22;45483;-85
2023/06/01 15:54:33;;;;;;;;;5.33;4.33;;;;;27.77;41.21;69437.66;6385515;22;44836;-88
2023/06/01 15:56:59;;;;;;;;;2.67;2.67;;;;;27.74;41.37;69477.56;6385916;22;45011;-87
2023/06/01 15:59:25;;;;;;;;;4.33;4.33;;;;;27.54;41.78;69416.31;6359589;22;45026;-90
2023/06/01 16:01:50;;;;;;;;;3.00;3.00;;;;;27.70;41.49;69358.06;6387810;22;46264;-93
2023/06/01 16:04:16;;;;;;;;;3.33;2.33;;;;;27.66;41.54;69389.22;6388152;22;49520;-87
2023/06/01 16:06:41;;;;;;;;;4.00;4.00;;;;;27.63;41.87;69410.13;6386882;22;44867;-92
2023/06/01 16:09:10;;;;;;;;;3.00;3.00;;;;;27.55;41.69;69308.22;6386573;22;44881;-90
2023/06/01 16:11:35;;;;;;;;;3.33;3.33;;;;;27.44;42.00;69259.84;6386174;22;46081;-94
2023/06/01 16:14:01;;;;;;;;;3.33;3.33;;;;;27.56;42.26;69282.25;6386846;22;45012;-89
2023/06/01 16:16:26;;;;;;;;;4.67;3.33;;;;;27.53;41.98;69243.97;6358265;22;44981;-94
2023/06/01 16:18:52;;;;;;;;;4.00;3.33;;;;;27.24;42.26;69255.72;6387444;22;44886;-95
2023/06/01 16:21:30;;;;;;;;;4.33;3.00;;;;;27.48;42.10;69223.84;6386196;22;45180;-94
2023/06/01 16:23:59;;;;;;;;;3.67;3.67;;;;;27.45;41.92;69195.84;6385743;22;44775;-91
2023/06/01 16:26:26;;;;;;;;;4.00;4.00;;;;;26.67;42.40;69124.72;6356625;22;44978;-89
2023/06/01 16:28:54;;;;;;;;;5.00;3.67;;;;;26.92;42.75;69066.91;6387170;22;44987;-93
2023/06/01 16:31:29;;;;;;;;;3.33;3.00;;;;;27.16;42.82;68969.88;6385303;22;45682;-90
2023/06/01 16:34:21;;;;;;;;;4.00;4.00;;;;;27.16;42.81;63173.38;6369732;22;44806;-93
2023/06/01 16:36:46;;;;;;;;;5.33;5.33;;;;;26.36;42.91;63112.50;6371800;22;27986;-91